sensor_id;sensor_type;location;lat;lon;timestamp;temperature;humidity
7002;DHT22;3541;53.230;10.518;2023-12-20T00:00:09;6.80;99.90
7002;DHT22;3541;53.230;10.518;2023-12-20T00:02:36;6.80;99.90
7002;DHT22;3541;53.230;10.518;2023-12-20T00:05:03;6.80;99.90
7002;DHT22;3541;53.230;10.518;2023-12-20T00:07:30;6.80;99.90
7002;DHT22;3541;53.230;10.518;2023-12-20T00:09:56;6.80;99.90
7002;DHT22;3541;53.230;10.518;2023-12-20T00:12:23;6.80;99.90
7002;DHT22;3541;53.230;10.518;2023-12-20T00:14:51;6.80;99.90
7002;DHT22;3541;53.230;10.518;2023-12-20T00:17:17;6.80;99.90
7002;DHT22;3541;53.230;10.518;2023-12-20T00:19:44;6.80;99.90
7002;DHT22;3541;53.230;10.518;2023-12-20T00:22:10;6.70;99.90
7002;DHT22;3541;53.230;10.518;2023-12-20T00:24:37;6.80;99.90
7002;DHT22;3541;53.230;10.518;2023-12-20T00:27:04;6.80;99.90
7002;DHT22;3541;53.230;10.518;2023-12-20T00:29:31;6.70;99.90
7002;DHT22;3541;53.230;10.518;2023-12-20T00:31:58;6.70;99.90
7002;DHT22;3541;53.230;10.518;2023-12-20T00:34:25;6.60;99.90
7002;DHT22;3541;53.230;10.518;2023-12-20T00:36:51;6.60;99.90
7002;DHT22;3541;53.230;10.518;2023-12-20T00:39:18;6.60;99.90
7002;DHT22;3541;53.230;10.518;2023-12-20T00:41:45;6.60;99.90
7002;DHT22;3541;53.230;10.518;2023-12-20T00:44:11;6.60;99.90
7002;DHT22;3541;53.230;10.518;2023-12-20T00:46:38;6.50;99.90
7002;DHT22;3541;53.230;10.518;2023-12-20T00:49:06;6.50;99.90
7002;DHT22;3541;53.230;10.518;2023-12-20T00:51:32;6.50;99.90
7002;DHT22;3541;53.230;10.518;2023-12-20T00:53:59;6.50;99.90
7002;DHT22;3541;53.230;10.518;2023-12-20T00:56:26;6.40;99.90
7002;DHT22;3541;53.230;10.518;2023-12-20T00:58:52;6.50;99.90
7002;DHT22;3541;53.230;10.518;2023-12-20T01:01:19;6.40;99.90
7002;DHT22;3541;53.230;10.518;2023-12-20T01:03:45;6.50;99.90
7002;DHT22;3541;53.230;10.518;2023-12-20T01:06:13;6.40;99.90
7002;DHT22;3541;53.230;10.518;2023-12-20T01:08:41;6.40;99.90
7002;DHT22;3541;53.230;10.518;2023-12-20T01:11:07;6.30;99.90
7002;DHT22;3541;53.230;10.518;2023-12-20T01:13:34;6.30;99.90
7002;DHT22;3541;53.230;10.518;2023-12-20T01:16:01;6.30;99.90
7002;DHT22;3541;53.230;10.518;2023-12-20T01:18:28;6.20;99.90
7002;DHT22;3541;53.230;10.518;2023-12-20T01:20:55;6.30;99.90
7002;DHT22;3541;53.230;10.518;2023-12-20T01:23:23;6.30;99.90
7002;DHT22;3541;53.230;10.518;2023-12-20T01:25:49;6.20;99.90
7002;DHT22;3541;53.230;10.518;2023-12-20T01:28:16;6.20;99.90
7002;DHT22;3541;53.230;10.518;2023-12-20T01:30:43;6.30;99.90
7002;DHT22;3541;53.230;10.518;2023-12-20T01:33:09;6.20;99.90
7002;DHT22;3541;53.230;10.518;2023-12-20T01:35:36;6.20;99.90
7002;DHT22;3541;53.230;10.518;2023-12-20T01:38:02;6.10;99.90
7002;DHT22;3541;53.230;10.518;2023-12-20T01:40:30;6.10;99.90
7002;DHT22;3541;53.230;10.518;2023-12-20T01:43:00;6.00;99.90
7002;DHT22;3541;53.230;10.518;2023-12-20T01:45:27;6.10;99.90
7002;DHT22;3541;53.230;10.518;2023-12-20T01:47:54;6.10;99.90
7002;DHT22;3541;53.230;10.518;2023-12-20T01:50:21;6.10;99.90
7002;DHT22;3541;53.230;10.518;2023-12-20T01:52:48;6.10;99.90
7002;DHT22;3541;53.230;10.518;2023-12-20T01:55:17;6.20;99.90
7002;DHT22;3541;53.230;10.518;2023-12-20T01:57:46;6.10;99.90
7002;DHT22;3541;53.230;10.518;2023-12-20T02:00:14;6.00;99.90
7002;DHT22;3541;53.230;10.518;2023-12-20T02:02:41;6.00;99.90
7002;DHT22;3541;53.230;10.518;2023-12-20T02:05:09;6.00;99.90
7002;DHT22;3541;53.230;10.518;2023-12-20T02:07:36;6.00;99.90
7002;DHT22;3541;53.230;10.518;2023-12-20T02:10:03;6.10;99.90
7002;DHT22;3541;53.230;10.518;2023-12-20T02:12:30;6.10;99.90
7002;DHT22;3541;53.230;10.518;2023-12-20T02:14:58;6.10;99.90
7002;DHT22;3541;53.230;10.518;2023-12-20T02:17:25;6.10;99.90
7002;DHT22;3541;53.230;10.518;2023-12-20T02:19:52;6.10;99.90
7002;DHT22;3541;53.230;10.518;2023-12-20T02:22:20;6.10;99.90
7002;DHT22;3541;53.230;10.518;2023-12-20T02:24:46;6.10;99.90
7002;DHT22;3541;53.230;10.518;2023-12-20T02:27:13;6.10;99.90
7002;DHT22;3541;53.230;10.518;2023-12-20T02:29:41;6.10;99.90
7002;DHT22;3541;53.230;10.518;2023-12-20T02:32:08;6.10;99.90
7002;DHT22;3541;53.230;10.518;2023-12-20T02:34:34;6.10;99.90
7002;DHT22;3541;53.230;10.518;2023-12-20T02:37:01;6.00;99.90
7002;DHT22;3541;53.230;10.518;2023-12-20T02:39:29;6.00;99.90
7002;DHT22;3541;53.230;10.518;2023-12-20T02:41:56;6.00;99.90
7002;DHT22;3541;53.230;10.518;2023-12-20T02:44:22;6.10;99.90
7002;DHT22;3541;53.230;10.518;2023-12-20T02:46:49;6.00;99.90
7002;DHT22;3541;53.230;10.518;2023-12-20T02:49:15;6.00;99.90
7002;DHT22;3541;53.230;10.518;2023-12-20T02:51:42;6.00;99.90
7002;DHT22;3541;53.230;10.518;2023-12-20T02:54:09;6.00;99.90
7002;DHT22;3541;53.230;10.518;2023-12-20T02:56:36;6.00;99.90
7002;DHT22;3541;53.230;10.518;2023-12-20T02:59:03;6.00;99.90
7002;DHT22;3541;53.230;10.518;2023-12-20T03:01:31;6.00;99.90
7002;DHT22;3541;53.230;10.518;2023-12-20T03:03:57;6.00;99.90
7002;DHT22;3541;53.230;10.518;2023-12-20T03:06:24;6.00;99.90
7002;DHT22;3541;53.230;10.518;2023-12-20T03:08:51;5.90;99.90
7002;DHT22;3541;53.230;10.518;2023-12-20T03:11:18;6.00;99.90
7002;DHT22;3541;53.230;10.518;2023-12-20T03:13:45;5.90;99.90
7002;DHT22;3541;53.230;10.518;2023-12-20T03:16:13;5.90;99.90
7002;DHT22;3541;53.230;10.518;2023-12-20T03:18:41;6.00;99.90
7002;DHT22;3541;53.230;10.518;2023-12-20T03:21:08;5.90;99.90
7002;DHT22;3541;53.230;10.518;2023-12-20T03:23:34;5.90;99.90
7002;DHT22;3541;53.230;10.518;2023-12-20T03:26:01;5.90;99.90
7002;DHT22;3541;53.230;10.518;2023-12-20T03:28:27;5.90;99.90
7002;DHT22;3541;53.230;10.518;2023-12-20T03:30:55;5.90;99.90
7002;DHT22;3541;53.230;10.518;2023-12-20T03:33:22;5.90;99.90
7002;DHT22;3541;53.230;10.518;2023-12-20T03:35:48;5.90;99.90
7002;DHT22;3541;53.230;10.518;2023-12-20T03:38:15;5.90;99.90
7002;DHT22;3541;53.230;10.518;2023-12-20T03:40:42;5.80;99.90
7002;DHT22;3541;53.230;10.518;2023-12-20T03:43:08;5.80;99.90
7002;DHT22;3541;53.230;10.518;2023-12-20T03:45:35;5.80;99.90
7002;DHT22;3541;53.230;10.518;2023-12-20T03:48:03;5.80;99.90
7002;DHT22;3541;53.230;10.518;2023-12-20T03:50:30;5.80;99.90
7002;DHT22;3541;53.230;10.518;2023-12-20T03:52:57;5.70;99.90
7002;DHT22;3541;53.230;10.518;2023-12-20T03:55:23;5.70;99.90
7002;DHT22;3541;53.230;10.518;2023-12-20T03:57:50;5.70;99.90
7002;DHT22;3541;53.230;10.518;2023-12-20T04:00:17;5.70;99.90
7002;DHT22;3541;53.230;10.518;2023-12-20T04:02:43;5.70;99.90
7002;DHT22;3541;53.230;10.518;2023-12-20T04:05:11;5.80;99.90
7002;DHT22;3541;53.230;10.518;2023-12-20T04:07:38;5.80;99.90
7002;DHT22;3541;53.230;10.518;2023-12-20T04:10:06;5.80;99.90
7002;DHT22;3541;53.230;10.518;2023-12-20T04:12:33;5.80;99.90
7002;DHT22;3541;53.230;10.518;2023-12-20T04:15:00;5.70;99.90
7002;DHT22;3541;53.230;10.518;2023-12-20T04:17:26;5.80;99.90
7002;DHT22;3541;53.230;10.518;2023-12-20T04:19:53;5.70;99.90
7002;DHT22;3541;53.230;10.518;2023-12-20T04:22:21;5.80;99.90
7002;DHT22;3541;53.230;10.518;2023-12-20T04:24:47;5.80;99.90
7002;DHT22;3541;53.230;10.518;2023-12-20T04:27:14;5.80;99.90
7002;DHT22;3541;53.230;10.518;2023-12-20T04:29:40;5.80;99.90
7002;DHT22;3541;53.230;10.518;2023-12-20T04:32:07;5.80;99.90
7002;DHT22;3541;53.230;10.518;2023-12-20T04:34:33;5.80;99.90
7002;DHT22;3541;53.230;10.518;2023-12-20T04:37:00;5.80;99.90
7002;DHT22;3541;53.230;10.518;2023-12-20T04:39:28;5.80;99.90
7002;DHT22;3541;53.230;10.518;2023-12-20T04:41:55;5.80;99.90
7002;DHT22;3541;53.230;10.518;2023-12-20T04:44:22;5.80;99.90
7002;DHT22;3541;53.230;10.518;2023-12-20T04:46:49;5.90;99.90
7002;DHT22;3541;53.230;10.518;2023-12-20T04:49:15;5.80;99.90
7002;DHT22;3541;53.230;10.518;2023-12-20T04:51:42;5.80;99.90
7002;DHT22;3541;53.230;10.518;2023-12-20T04:54:09;5.80;99.90
7002;DHT22;3541;53.230;10.518;2023-12-20T04:56:37;5.80;99.90
7002;DHT22;3541;53.230;10.518;2023-12-20T04:59:03;5.80;99.90
7002;DHT22;3541;53.230;10.518;2023-12-20T05:01:31;5.80;99.90
7002;DHT22;3541;53.230;10.518;2023-12-20T05:03:57;5.80;99.90
7002;DHT22;3541;53.230;10.518;2023-12-20T05:06:24;5.90;99.90
7002;DHT22;3541;53.230;10.518;2023-12-20T05:08:51;5.80;99.90
7002;DHT22;3541;53.230;10.518;2023-12-20T05:11:17;5.90;99.90
7002;DHT22;3541;53.230;10.518;2023-12-20T05:13:45;5.90;99.90
7002;DHT22;3541;53.230;10.518;2023-12-20T05:16:12;5.80;99.90
7002;DHT22;3541;53.230;10.518;2023-12-20T05:18:39;5.80;99.90
7002;DHT22;3541;53.230;10.518;2023-12-20T05:21:06;5.80;99.90
7002;DHT22;3541;53.230;10.518;2023-12-20T05:23:33;5.90;99.90
7002;DHT22;3541;53.230;10.518;2023-12-20T05:25:59;5.90;99.90
7002;DHT22;3541;53.230;10.518;2023-12-20T05:28:26;5.90;99.90
7002;DHT22;3541;53.230;10.518;2023-12-20T05:30:54;5.90;99.90
7002;DHT22;3541;53.230;10.518;2023-12-20T05:33:20;5.80;99.90
7002;DHT22;3541;53.230;10.518;2023-12-20T05:35:47;5.80;99.90
7002;DHT22;3541;53.230;10.518;2023-12-20T05:38:13;5.80;99.90
7002;DHT22;3541;53.230;10.518;2023-12-20T05:40:40;5.90;99.90
7002;DHT22;3541;53.230;10.518;2023-12-20T05:43:07;5.90;99.90
7002;DHT22;3541;53.230;10.518;2023-12-20T05:45:33;5.80;99.90
7002;DHT22;3541;53.230;10.518;2023-12-20T05:48:01;5.90;99.90
7002;DHT22;3541;53.230;10.518;2023-12-20T05:50:27;5.90;99.90
7002;DHT22;3541;53.230;10.518;2023-12-20T05:52:54;5.90;99.90
7002;DHT22;3541;53.230;10.518;2023-12-20T05:55:20;5.90;99.90
7002;DHT22;3541;53.230;10.518;2023-12-20T05:57:47;5.90;99.90
7002;DHT22;3541;53.230;10.518;2023-12-20T06:00:14;5.90;99.90
7002;DHT22;3541;53.230;10.518;2023-12-20T06:02:41;5.90;99.90
7002;DHT22;3541;53.230;10.518;2023-12-20T06:05:09;5.90;99.90
7002;DHT22;3541;53.230;10.518;2023-12-20T06:07:36;5.90;99.90
7002;DHT22;3541;53.230;10.518;2023-12-20T06:10:03;6.00;99.90
7002;DHT22;3541;53.230;10.518;2023-12-20T06:12:31;5.90;99.90
7002;DHT22;3541;53.230;10.518;2023-12-20T06:15:01;6.00;99.90
7002;DHT22;3541;53.230;10.518;2023-12-20T06:17:27;6.00;99.90
7002;DHT22;3541;53.230;10.518;2023-12-20T06:19:55;5.90;99.90
7002;DHT22;3541;53.230;10.518;2023-12-20T06:22:23;6.00;99.90
7002;DHT22;3541;53.230;10.518;2023-12-20T06:24:50;6.00;99.90
7002;DHT22;3541;53.230;10.518;2023-12-20T06:27:16;6.00;99.90
7002;DHT22;3541;53.230;10.518;2023-12-20T06:29:43;6.00;99.90
7002;DHT22;3541;53.230;10.518;2023-12-20T06:32:10;6.00;99.90
7002;DHT22;3541;53.230;10.518;2023-12-20T06:34:37;6.00;99.90
7002;DHT22;3541;53.230;10.518;2023-12-20T06:37:04;6.00;99.90
7002;DHT22;3541;53.230;10.518;2023-12-20T06:39:32;6.00;99.90
7002;DHT22;3541;53.230;10.518;2023-12-20T06:41:59;5.90;99.90
7002;DHT22;3541;53.230;10.518;2023-12-20T06:44:26;5.90;99.90
7002;DHT22;3541;53.230;10.518;2023-12-20T06:46:52;5.90;99.90
7002;DHT22;3541;53.230;10.518;2023-12-20T06:49:19;5.90;99.90
7002;DHT22;3541;53.230;10.518;2023-12-20T06:51:46;5.90;99.90
7002;DHT22;3541;53.230;10.518;2023-12-20T06:54:12;6.00;99.90
7002;DHT22;3541;53.230;10.518;2023-12-20T06:56:40;6.00;99.90
7002;DHT22;3541;53.230;10.518;2023-12-20T06:59:07;5.90;99.90
7002;DHT22;3541;53.230;10.518;2023-12-20T07:01:34;6.00;99.90
7002;DHT22;3541;53.230;10.518;2023-12-20T07:04:00;6.00;99.90
7002;DHT22;3541;53.230;10.518;2023-12-20T07:06:27;6.00;99.90
7002;DHT22;3541;53.230;10.518;2023-12-20T07:08:53;6.00;99.90
7002;DHT22;3541;53.230;10.518;2023-12-20T07:11:20;6.00;99.90
7002;DHT22;3541;53.230;10.518;2023-12-20T07:13:48;6.00;99.90
7002;DHT22;3541;53.230;10.518;2023-12-20T07:16:15;6.00;99.90
7002;DHT22;3541;53.230;10.518;2023-12-20T07:18:41;6.00;99.90
7002;DHT22;3541;53.230;10.518;2023-12-20T07:21:08;6.00;99.90
7002;DHT22;3541;53.230;10.518;2023-12-20T07:23:34;6.00;99.90
7002;DHT22;3541;53.230;10.518;2023-12-20T07:26:01;6.00;99.90
7002;DHT22;3541;53.230;10.518;2023-12-20T07:28:29;6.00;99.90
7002;DHT22;3541;53.230;10.518;2023-12-20T07:30:57;6.00;99.90
7002;DHT22;3541;53.230;10.518;2023-12-20T07:33:23;6.00;99.90
7002;DHT22;3541;53.230;10.518;2023-12-20T07:35:50;6.00;99.90
7002;DHT22;3541;53.230;10.518;2023-12-20T07:38:17;6.00;99.90
7002;DHT22;3541;53.230;10.518;2023-12-20T07:40:44;6.00;99.90
7002;DHT22;3541;53.230;10.518;2023-12-20T07:43:10;6.00;99.90
7002;DHT22;3541;53.230;10.518;2023-12-20T07:45:37;6.00;99.90
7002;DHT22;3541;53.230;10.518;2023-12-20T07:48:06;6.00;99.90
7002;DHT22;3541;53.230;10.518;2023-12-20T07:50:33;6.10;99.90
7002;DHT22;3541;53.230;10.518;2023-12-20T07:52:59;6.10;99.90
7002;DHT22;3541;53.230;10.518;2023-12-20T07:55:26;6.10;99.90
7002;DHT22;3541;53.230;10.518;2023-12-20T07:57:53;6.00;99.90
7002;DHT22;3541;53.230;10.518;2023-12-20T08:00:19;6.00;99.90
7002;DHT22;3541;53.230;10.518;2023-12-20T08:02:46;6.00;99.90
7002;DHT22;3541;53.230;10.518;2023-12-20T08:05:14;6.00;99.90
7002;DHT22;3541;53.230;10.518;2023-12-20T08:07:40;6.00;99.90
7002;DHT22;3541;53.230;10.518;2023-12-20T08:10:07;6.00;99.90
7002;DHT22;3541;53.230;10.518;2023-12-20T08:12:34;6.00;99.90
7002;DHT22;3541;53.230;10.518;2023-12-20T08:15:01;6.00;99.90
7002;DHT22;3541;53.230;10.518;2023-12-20T08:17:29;6.10;99.90
7002;DHT22;3541;53.230;10.518;2023-12-20T08:19:55;6.00;99.90
7002;DHT22;3541;53.230;10.518;2023-12-20T08:22:23;6.00;99.90
7002;DHT22;3541;53.230;10.518;2023-12-20T08:24:50;6.10;99.90
7002;DHT22;3541;53.230;10.518;2023-12-20T08:27:17;6.10;99.90
7002;DHT22;3541;53.230;10.518;2023-12-20T08:29:44;6.10;99.90
7002;DHT22;3541;53.230;10.518;2023-12-20T08:32:10;6.10;99.90
7002;DHT22;3541;53.230;10.518;2023-12-20T08:34:37;6.10;99.90
7002;DHT22;3541;53.230;10.518;2023-12-20T08:37:04;6.00;99.90
7002;DHT22;3541;53.230;10.518;2023-12-20T08:39:32;6.10;99.90
7002;DHT22;3541;53.230;10.518;2023-12-20T08:41:59;6.10;99.90
7002;DHT22;3541;53.230;10.518;2023-12-20T08:44:25;6.10;99.90
7002;DHT22;3541;53.230;10.518;2023-12-20T08:46:52;6.10;99.90
7002;DHT22;3541;53.230;10.518;2023-12-20T08:49:18;6.10;99.90
7002;DHT22;3541;53.230;10.518;2023-12-20T08:51:45;6.10;99.90
7002;DHT22;3541;53.230;10.518;2023-12-20T08:54:11;6.10;99.90
7002;DHT22;3541;53.230;10.518;2023-12-20T08:56:39;6.10;99.90
7002;DHT22;3541;53.230;10.518;2023-12-20T08:59:06;6.20;99.90
7002;DHT22;3541;53.230;10.518;2023-12-20T09:01:33;6.20;99.90
7002;DHT22;3541;53.230;10.518;2023-12-20T09:03:59;6.20;99.90
7002;DHT22;3541;53.230;10.518;2023-12-20T09:06:26;6.20;99.90
7002;DHT22;3541;53.230;10.518;2023-12-20T09:08:52;6.20;99.90
7002;DHT22;3541;53.230;10.518;2023-12-20T09:11:19;6.20;99.90
7002;DHT22;3541;53.230;10.518;2023-12-20T09:13:47;6.30;99.90
7002;DHT22;3541;53.230;10.518;2023-12-20T09:16:13;6.30;99.90
7002;DHT22;3541;53.230;10.518;2023-12-20T09:18:41;6.30;99.90
7002;DHT22;3541;53.230;10.518;2023-12-20T09:21:07;6.30;99.90
7002;DHT22;3541;53.230;10.518;2023-12-20T09:23:34;6.30;99.90
7002;DHT22;3541;53.230;10.518;2023-12-20T09:26:02;6.30;99.90
7002;DHT22;3541;53.230;10.518;2023-12-20T09:28:28;6.30;99.90
7002;DHT22;3541;53.230;10.518;2023-12-20T09:30:56;6.30;99.90
7002;DHT22;3541;53.230;10.518;2023-12-20T09:33:23;6.30;99.90
7002;DHT22;3541;53.230;10.518;2023-12-20T09:35:50;6.30;99.90
7002;DHT22;3541;53.230;10.518;2023-12-20T09:38:16;6.20;99.90
7002;DHT22;3541;53.230;10.518;2023-12-20T09:40:43;6.20;99.90
7002;DHT22;3541;53.230;10.518;2023-12-20T09:43:11;6.20;99.90
7002;DHT22;3541;53.230;10.518;2023-12-20T09:45:40;6.20;99.90
7002;DHT22;3541;53.230;10.518;2023-12-20T09:48:10;6.10;99.90
7002;DHT22;3541;53.230;10.518;2023-12-20T09:50:37;6.10;99.90
7002;DHT22;3541;53.230;10.518;2023-12-20T09:53:05;6.10;99.90
7002;DHT22;3541;53.230;10.518;2023-12-20T09:55:35;6.10;99.90
7002;DHT22;3541;53.230;10.518;2023-12-20T09:58:02;6.10;99.90
7002;DHT22;3541;53.230;10.518;2023-12-20T10:00:28;6.20;99.90
7002;DHT22;3541;53.230;10.518;2023-12-20T10:02:57;6.10;99.90
7002;DHT22;3541;53.230;10.518;2023-12-20T10:05:27;6.10;99.90
7002;DHT22;3541;53.230;10.518;2023-12-20T10:07:53;6.10;99.90
7002;DHT22;3541;53.230;10.518;2023-12-20T10:10:20;6.10;99.90
7002;DHT22;3541;53.230;10.518;2023-12-20T10:13:01;6.10;99.90
7002;DHT22;3541;53.230;10.518;2023-12-20T10:15:28;5.90;99.90
7002;DHT22;3541;53.230;10.518;2023-12-20T10:17:55;5.80;99.90
7002;DHT22;3541;53.230;10.518;2023-12-20T10:20:21;5.70;99.90
7002;DHT22;3541;53.230;10.518;2023-12-20T10:22:49;5.70;99.90
7002;DHT22;3541;53.230;10.518;2023-12-20T10:25:19;5.70;99.90
7002;DHT22;3541;53.230;10.518;2023-12-20T10:27:45;5.70;99.90
7002;DHT22;3541;53.230;10.518;2023-12-20T10:30:12;5.70;99.90
7002;DHT22;3541;53.230;10.518;2023-12-20T10:32:39;5.70;99.90
7002;DHT22;3541;53.230;10.518;2023-12-20T10:35:08;5.80;99.90
7002;DHT22;3541;53.230;10.518;2023-12-20T10:37:42;5.80;99.90
7002;DHT22;3541;53.230;10.518;2023-12-20T10:40:09;5.80;99.90
7002;DHT22;3541;53.230;10.518;2023-12-20T10:42:37;5.80;99.90
7002;DHT22;3541;53.230;10.518;2023-12-20T10:45:05;5.80;99.90
7002;DHT22;3541;53.230;10.518;2023-12-20T10:47:32;5.80;99.90
7002;DHT22;3541;53.230;10.518;2023-12-20T10:49:59;5.90;99.90
7002;DHT22;3541;53.230;10.518;2023-12-20T10:52:28;5.80;99.90
7002;DHT22;3541;53.230;10.518;2023-12-20T10:54:56;5.80;99.90
7002;DHT22;3541;53.230;10.518;2023-12-20T10:57:27;5.80;99.90
7002;DHT22;3541;53.230;10.518;2023-12-20T10:59:54;5.80;99.90
7002;DHT22;3541;53.230;10.518;2023-12-20T11:02:22;5.80;99.90
7002;DHT22;3541;53.230;10.518;2023-12-20T11:04:53;5.80;99.90
7002;DHT22;3541;53.230;10.518;2023-12-20T11:07:25;5.90;99.90
7002;DHT22;3541;53.230;10.518;2023-12-20T11:10:01;5.90;99.90
7002;DHT22;3541;53.230;10.518;2023-12-20T11:12:36;5.80;99.90
7002;DHT22;3541;53.230;10.518;2023-12-20T11:15:04;5.80;99.90
7002;DHT22;3541;53.230;10.518;2023-12-20T11:17:32;5.80;99.90
7002;DHT22;3541;53.230;10.518;2023-12-20T11:20:07;5.80;99.90
7002;DHT22;3541;53.230;10.518;2023-12-20T11:22:35;5.80;99.90
7002;DHT22;3541;53.230;10.518;2023-12-20T11:25:05;5.90;99.90
7002;DHT22;3541;53.230;10.518;2023-12-20T11:27:33;5.90;99.90
7002;DHT22;3541;53.230;10.518;2023-12-20T11:30:03;5.90;99.90
7002;DHT22;3541;53.230;10.518;2023-12-20T11:32:32;5.90;99.90
7002;DHT22;3541;53.230;10.518;2023-12-20T11:35:00;5.80;99.90
7002;DHT22;3541;53.230;10.518;2023-12-20T11:37:35;5.80;99.90
7002;DHT22;3541;53.230;10.518;2023-12-20T11:40:06;5.80;99.90
7002;DHT22;3541;53.230;10.518;2023-12-20T11:42:38;5.80;99.90
7002;DHT22;3541;53.230;10.518;2023-12-20T11:45:06;5.80;99.90
7002;DHT22;3541;53.230;10.518;2023-12-20T11:47:34;5.90;99.90
7002;DHT22;3541;53.230;10.518;2023-12-20T11:50:01;5.90;99.90
7002;DHT22;3541;53.230;10.518;2023-12-20T11:52:29;5.90;99.90
7002;DHT22;3541;53.230;10.518;2023-12-20T11:54:57;5.90;99.90
7002;DHT22;3541;53.230;10.518;2023-12-20T11:57:25;5.90;99.90
7002;DHT22;3541;53.230;10.518;2023-12-20T11:59:51;5.80;99.90
7002;DHT22;3541;53.230;10.518;2023-12-20T12:02:18;5.90;99.90
7002;DHT22;3541;53.230;10.518;2023-12-20T12:04:45;6.00;99.90
7002;DHT22;3541;53.230;10.518;2023-12-20T12:07:11;6.00;99.90
7002;DHT22;3541;53.230;10.518;2023-12-20T12:09:38;6.00;99.90
7002;DHT22;3541;53.230;10.518;2023-12-20T12:12:05;6.00;99.90
7002;DHT22;3541;53.230;10.518;2023-12-20T12:14:34;6.00;99.90
7002;DHT22;3541;53.230;10.518;2023-12-20T12:17:02;6.00;99.90
7002;DHT22;3541;53.230;10.518;2023-12-20T12:19:29;6.00;99.90
7002;DHT22;3541;53.230;10.518;2023-12-20T12:22:08;6.10;99.90
7002;DHT22;3541;53.230;10.518;2023-12-20T12:24:38;6.10;99.90
7002;DHT22;3541;53.230;10.518;2023-12-20T12:27:06;6.10;99.90
7002;DHT22;3541;53.230;10.518;2023-12-20T12:29:34;6.10;99.90
7002;DHT22;3541;53.230;10.518;2023-12-20T12:32:04;6.20;99.90
7002;DHT22;3541;53.230;10.518;2023-12-20T12:34:32;6.20;99.90
7002;DHT22;3541;53.230;10.518;2023-12-20T12:36:59;6.20;99.90
7002;DHT22;3541;53.230;10.518;2023-12-20T12:39:26;6.20;99.90
7002;DHT22;3541;53.230;10.518;2023-12-20T12:41:53;6.20;99.90
7002;DHT22;3541;53.230;10.518;2023-12-20T12:44:19;6.20;99.90
7002;DHT22;3541;53.230;10.518;2023-12-20T12:46:50;6.30;99.90
7002;DHT22;3541;53.230;10.518;2023-12-20T12:49:19;6.20;99.90
7002;DHT22;3541;53.230;10.518;2023-12-20T12:51:46;6.30;99.90
7002;DHT22;3541;53.230;10.518;2023-12-20T12:54:13;6.20;99.90
7002;DHT22;3541;53.230;10.518;2023-12-20T12:56:42;6.30;99.90
7002;DHT22;3541;53.230;10.518;2023-12-20T12:59:08;6.30;99.90
7002;DHT22;3541;53.230;10.518;2023-12-20T13:01:35;6.20;99.90
7002;DHT22;3541;53.230;10.518;2023-12-20T13:04:03;6.20;99.90
7002;DHT22;3541;53.230;10.518;2023-12-20T13:06:35;6.20;99.90
7002;DHT22;3541;53.230;10.518;2023-12-20T13:09:02;6.20;99.90
7002;DHT22;3541;53.230;10.518;2023-12-20T13:11:30;6.20;99.90
7002;DHT22;3541;53.230;10.518;2023-12-20T13:13:57;6.10;99.90
7002;DHT22;3541;53.230;10.518;2023-12-20T13:16:24;6.10;99.90
7002;DHT22;3541;53.230;10.518;2023-12-20T13:18:50;6.20;99.90
7002;DHT22;3541;53.230;10.518;2023-12-20T13:21:18;6.10;99.90
7002;DHT22;3541;53.230;10.518;2023-12-20T13:23:45;6.10;99.90
7002;DHT22;3541;53.230;10.518;2023-12-20T13:26:11;6.10;99.90
7002;DHT22;3541;53.230;10.518;2023-12-20T13:28:38;6.10;99.90
7002;DHT22;3541;53.230;10.518;2023-12-20T13:31:04;6.10;99.90
7002;DHT22;3541;53.230;10.518;2023-12-20T13:33:31;6.10;99.90
7002;DHT22;3541;53.230;10.518;2023-12-20T13:35:57;6.20;99.90
7002;DHT22;3541;53.230;10.518;2023-12-20T13:38:26;6.10;99.90
7002;DHT22;3541;53.230;10.518;2023-12-20T13:40:53;6.10;99.90
7002;DHT22;3541;53.230;10.518;2023-12-20T13:43:19;6.10;99.90
7002;DHT22;3541;53.230;10.518;2023-12-20T13:45:46;6.10;99.90
7002;DHT22;3541;53.230;10.518;2023-12-20T13:48:13;6.00;99.90
7002;DHT22;3541;53.230;10.518;2023-12-20T13:50:39;6.00;99.90
7002;DHT22;3541;53.230;10.518;2023-12-20T13:53:06;6.00;99.90
7002;DHT22;3541;53.230;10.518;2023-12-20T13:55:34;6.00;99.90
7002;DHT22;3541;53.230;10.518;2023-12-20T13:58:00;6.00;99.90
7002;DHT22;3541;53.230;10.518;2023-12-20T14:00:27;6.00;99.90
7002;DHT22;3541;53.230;10.518;2023-12-20T14:02:53;6.00;99.90
7002;DHT22;3541;53.230;10.518;2023-12-20T14:05:20;6.00;99.90
7002;DHT22;3541;53.230;10.518;2023-12-20T14:07:48;6.00;99.90
7002;DHT22;3541;53.230;10.518;2023-12-20T14:10:15;6.00;99.90
7002;DHT22;3541;53.230;10.518;2023-12-20T14:12:43;6.00;99.90
7002;DHT22;3541;53.230;10.518;2023-12-20T14:15:11;6.00;99.90
7002;DHT22;3541;53.230;10.518;2023-12-20T14:17:38;6.00;99.90
7002;DHT22;3541;53.230;10.518;2023-12-20T14:20:05;6.00;99.90
7002;DHT22;3541;53.230;10.518;2023-12-20T14:22:33;6.00;99.90
7002;DHT22;3541;53.230;10.518;2023-12-20T14:25:00;6.00;99.90
7002;DHT22;3541;53.230;10.518;2023-12-20T14:27:26;6.00;99.90
7002;DHT22;3541;53.230;10.518;2023-12-20T14:29:55;6.00;99.90
7002;DHT22;3541;53.230;10.518;2023-12-20T14:32:22;6.00;99.90
7002;DHT22;3541;53.230;10.518;2023-12-20T14:34:48;6.00;99.90
7002;DHT22;3541;53.230;10.518;2023-12-20T14:37:15;6.00;99.90
7002;DHT22;3541;53.230;10.518;2023-12-20T14:39:42;6.00;99.90
7002;DHT22;3541;53.230;10.518;2023-12-20T14:42:08;6.00;99.90
7002;DHT22;3541;53.230;10.518;2023-12-20T14:44:38;6.00;99.90
7002;DHT22;3541;53.230;10.518;2023-12-20T14:47:06;5.90;99.90
7002;DHT22;3541;53.230;10.518;2023-12-20T14:49:33;5.90;99.90
7002;DHT22;3541;53.230;10.518;2023-12-20T14:51:59;5.80;99.90
7002;DHT22;3541;53.230;10.518;2023-12-20T14:54:26;5.80;99.90
7002;DHT22;3541;53.230;10.518;2023-12-20T14:56:52;5.80;99.90
7002;DHT22;3541;53.230;10.518;2023-12-20T14:59:19;5.80;99.90
7002;DHT22;3541;53.230;10.518;2023-12-20T15:01:46;5.80;99.90
7002;DHT22;3541;53.230;10.518;2023-12-20T15:04:14;5.80;99.90
7002;DHT22;3541;53.230;10.518;2023-12-20T15:06:40;5.80;99.90
7002;DHT22;3541;53.230;10.518;2023-12-20T15:09:07;5.80;99.90
7002;DHT22;3541;53.230;10.518;2023-12-20T15:11:34;5.70;99.90
7002;DHT22;3541;53.230;10.518;2023-12-20T15:14:01;5.70;99.90
7002;DHT22;3541;53.230;10.518;2023-12-20T15:16:28;5.80;99.90
7002;DHT22;3541;53.230;10.518;2023-12-20T15:18:54;5.80;99.90
7002;DHT22;3541;53.230;10.518;2023-12-20T15:21:23;5.70;99.90
7002;DHT22;3541;53.230;10.518;2023-12-20T15:23:57;5.70;99.90
7002;DHT22;3541;53.230;10.518;2023-12-20T15:26:31;5.70;99.90
7002;DHT22;3541;53.230;10.518;2023-12-20T15:28:58;5.70;99.90
7002;DHT22;3541;53.230;10.518;2023-12-20T15:31:25;5.70;99.90
7002;DHT22;3541;53.230;10.518;2023-12-20T15:33:52;5.70;99.90
7002;DHT22;3541;53.230;10.518;2023-12-20T15:36:19;5.70;99.90
7002;DHT22;3541;53.230;10.518;2023-12-20T15:38:47;5.70;99.90
7002;DHT22;3541;53.230;10.518;2023-12-20T15:41:17;5.70;99.90
7002;DHT22;3541;53.230;10.518;2023-12-20T15:43:44;5.70;99.90
7002;DHT22;3541;53.230;10.518;2023-12-20T15:46:10;5.70;99.90
7002;DHT22;3541;53.230;10.518;2023-12-20T15:48:37;5.70;99.90
7002;DHT22;3541;53.230;10.518;2023-12-20T15:51:04;5.80;99.90
7002;DHT22;3541;53.230;10.518;2023-12-20T15:53:31;5.70;99.90
7002;DHT22;3541;53.230;10.518;2023-12-20T15:55:59;5.80;99.90
7002;DHT22;3541;53.230;10.518;2023-12-20T15:58:25;5.80;99.90
7002;DHT22;3541;53.230;10.518;2023-12-20T16:00:53;5.70;99.90